sensor_id;sensor_type;location;lat;lon;timestamp;P1;durP1;ratioP1;P2;durP2;ratioP2
48122;SDS011;33907;47.426;18.906;2023-08-21T00:01:32;19.65;;;17.60;;
48122;SDS011;33907;47.426;18.906;2023-08-21T00:04:00;17.83;;;16.00;;
48122;SDS011;33907;47.426;18.906;2023-08-21T00:06:28;21.27;;;17.42;;
48122;SDS011;33907;47.426;18.906;2023-08-21T00:08:55;22.23;;;16.55;;
48122;SDS011;33907;47.426;18.906;2023-08-21T00:11:23;18.27;;;16.37;;
48122;SDS011;33907;47.426;18.906;2023-08-21T00:13:50;21.23;;;16.33;;
48122;SDS011;33907;47.426;18.906;2023-08-21T00:16:18;19.17;;;17.17;;
48122;SDS011;33907;47.426;18.906;2023-08-21T00:18:46;18.23;;;16.45;;
48122;SDS011;33907;47.426;18.906;2023-08-21T00:21:14;19.98;;;17.30;;
48122;SDS011;33907;47.426;18.906;2023-08-21T00:23:41;18.67;;;16.87;;
48122;SDS011;33907;47.426;18.906;2023-08-21T00:26:10;18.40;;;16.42;;
48122;SDS011;33907;47.426;18.906;2023-08-21T00:28:38;19.25;;;17.25;;
48122;SDS011;33907;47.426;18.906;2023-08-21T00:31:05;18.92;;;17.02;;
48122;SDS011;33907;47.426;18.906;2023-08-21T00:33:33;18.92;;;16.92;;
48122;SDS011;33907;47.426;18.906;2023-08-21T00:36:01;19.80;;;17.12;;
48122;SDS011;33907;47.426;18.906;2023-08-21T00:38:28;20.77;;;18.70;;
48122;SDS011;33907;47.426;18.906;2023-08-21T00:40:56;20.92;;;16.75;;
48122;SDS011;33907;47.426;18.906;2023-08-21T00:43:25;19.23;;;17.08;;
48122;SDS011;33907;47.426;18.906;2023-08-21T00:45:53;19.50;;;17.33;;
48122;SDS011;33907;47.426;18.906;2023-08-21T00:48:23;19.10;;;16.90;;
48122;SDS011;33907;47.426;18.906;2023-08-21T00:50:51;19.35;;;17.35;;
48122;SDS011;33907;47.426;18.906;2023-08-21T00:53:21;19.00;;;17.10;;
48122;SDS011;33907;47.426;18.906;2023-08-21T00:55:49;20.08;;;18.02;;
48122;SDS011;33907;47.426;18.906;2023-08-21T00:58:16;19.20;;;17.12;;
48122;SDS011;33907;47.426;18.906;2023-08-21T01:00:48;19.10;;;17.05;;
48122;SDS011;33907;47.426;18.906;2023-08-21T01:03:18;20.95;;;17.30;;
48122;SDS011;33907;47.426;18.906;2023-08-21T01:05:46;19.42;;;17.40;;
48122;SDS011;33907;47.426;18.906;2023-08-21T01:08:25;19.15;;;17.25;;
48122;SDS011;33907;47.426;18.906;2023-08-21T01:11:06;19.37;;;17.45;;
48122;SDS011;33907;47.426;18.906;2023-08-21T01:16:15;19.02;;;17.23;;
48122;SDS011;33907;47.426;18.906;2023-08-21T01:18:43;20.45;;;18.37;;
48122;SDS011;33907;47.426;18.906;2023-08-21T01:21:12;20.50;;;17.85;;
48122;SDS011;33907;47.426;18.906;2023-08-21T01:23:40;19.37;;;17.25;;
48122;SDS011;33907;47.426;18.906;2023-08-21T01:26:09;19.77;;;16.67;;
48122;SDS011;33907;47.426;18.906;2023-08-21T01:28:36;19.52;;;17.70;;
48122;SDS011;33907;47.426;18.906;2023-08-21T01:34:08;19.12;;;17.10;;
48122;SDS011;33907;47.426;18.906;2023-08-21T01:36:38;18.60;;;16.65;;
48122;SDS011;33907;47.426;18.906;2023-08-21T01:39:06;20.08;;;17.37;;
48122;SDS011;33907;47.426;18.906;2023-08-21T01:41:34;19.48;;;17.17;;
48122;SDS011;33907;47.426;18.906;2023-08-21T01:44:02;18.60;;;16.70;;
48122;SDS011;33907;47.426;18.906;2023-08-21T01:46:29;18.42;;;16.45;;
48122;SDS011;33907;47.426;18.906;2023-08-21T01:48:57;19.45;;;17.55;;
48122;SDS011;33907;47.426;18.906;2023-08-21T01:51:25;18.77;;;16.80;;
48122;SDS011;33907;47.426;18.906;2023-08-21T01:53:52;18.45;;;16.48;;
48122;SDS011;33907;47.426;18.906;2023-08-21T01:56:20;18.10;;;16.25;;
48122;SDS011;33907;47.426;18.906;2023-08-21T01:58:48;17.85;;;16.05;;
48122;SDS011;33907;47.426;18.906;2023-08-21T02:01:15;16.60;;;15.00;;
48122;SDS011;33907;47.426;18.906;2023-08-21T02:03:45;17.20;;;15.45;;
48122;SDS011;33907;47.426;18.906;2023-08-21T02:06:13;16.45;;;14.63;;
48122;SDS011;33907;47.426;18.906;2023-08-21T02:08:42;16.73;;;14.90;;
48122;SDS011;33907;47.426;18.906;2023-08-21T02:11:10;16.10;;;14.50;;
48122;SDS011;33907;47.426;18.906;2023-08-21T02:13:37;16.58;;;14.98;;
48122;SDS011;33907;47.426;18.906;2023-08-21T02:16:05;16.85;;;15.05;;
48122;SDS011;33907;47.426;18.906;2023-08-21T02:18:32;21.33;;;15.98;;
48122;SDS011;33907;47.426;18.906;2023-08-21T02:21:00;17.95;;;15.73;;
48122;SDS011;33907;47.426;18.906;2023-08-21T02:23:28;17.17;;;14.55;;
48122;SDS011;33907;47.426;18.906;2023-08-21T02:25:58;19.65;;;16.25;;
48122;SDS011;33907;47.426;18.906;2023-08-21T02:28:25;17.55;;;15.75;;
48122;SDS011;33907;47.426;18.906;2023-08-21T02:30:53;21.33;;;15.90;;
48122;SDS011;33907;47.426;18.906;2023-08-21T02:33:21;19.77;;;15.82;;
48122;SDS011;33907;47.426;18.906;2023-08-21T02:35:48;17.02;;;15.02;;
48122;SDS011;33907;47.426;18.906;2023-08-21T02:38:16;16.58;;;14.95;;
48122;SDS011;33907;47.426;18.906;2023-08-21T02:40:43;17.80;;;15.63;;
48122;SDS011;33907;47.426;18.906;2023-08-21T02:43:11;16.55;;;14.87;;
48122;SDS011;33907;47.426;18.906;2023-08-21T02:45:38;17.25;;;15.45;;
48122;SDS011;33907;47.426;18.906;2023-08-21T02:48:06;17.80;;;15.98;;
48122;SDS011;33907;47.426;18.906;2023-08-21T02:50:34;19.52;;;17.17;;
48122;SDS011;33907;47.426;18.906;2023-08-21T02:53:01;18.10;;;16.45;;
48122;SDS011;33907;47.426;18.906;2023-08-21T02:55:29;18.92;;;16.55;;
48122;SDS011;33907;47.426;18.906;2023-08-21T02:57:56;18.05;;;16.25;;
48122;SDS011;33907;47.426;18.906;2023-08-21T03:00:24;17.92;;;16.12;;
48122;SDS011;33907;47.426;18.906;2023-08-21T03:02:52;18.20;;;16.10;;
48122;SDS011;33907;47.426;18.906;2023-08-21T03:05:19;20.42;;;17.48;;
48122;SDS011;33907;47.426;18.906;2023-08-21T03:07:47;21.27;;;16.33;;
48122;SDS011;33907;47.426;18.906;2023-08-21T03:10:15;17.98;;;16.10;;
48122;SDS011;33907;47.426;18.906;2023-08-21T03:12:42;19.17;;;17.23;;
48122;SDS011;33907;47.426;18.906;2023-08-21T03:15:10;18.87;;;17.08;;
48122;SDS011;33907;47.426;18.906;2023-08-21T03:17:38;19.30;;;17.20;;
48122;SDS011;33907;47.426;18.906;2023-08-21T03:20:06;18.77;;;16.87;;
48122;SDS011;33907;47.426;18.906;2023-08-21T03:22:34;17.98;;;15.75;;
48122;SDS011;33907;47.426;18.906;2023-08-21T03:25:02;19.10;;;16.08;;
48122;SDS011;33907;47.426;18.906;2023-08-21T03:27:31;17.20;;;15.35;;
48122;SDS011;33907;47.426;18.906;2023-08-21T03:29:58;19.60;;;17.48;;
48122;SDS011;33907;47.426;18.906;2023-08-21T03:32:30;18.65;;;16.10;;
48122;SDS011;33907;47.426;18.906;2023-08-21T03:34:57;18.17;;;16.15;;
48122;SDS011;33907;47.426;18.906;2023-08-21T03:37:25;17.67;;;15.93;;
48122;SDS011;33907;47.426;18.906;2023-08-21T03:39:53;18.48;;;16.30;;
48122;SDS011;33907;47.426;18.906;2023-08-21T03:42:21;17.62;;;15.52;;
48122;SDS011;33907;47.426;18.906;2023-08-21T03:44:48;17.10;;;15.30;;
48122;SDS011;33907;47.426;18.906;2023-08-21T03:47:17;19.00;;;14.80;;
48122;SDS011;33907;47.426;18.906;2023-08-21T03:49:47;17.02;;;15.23;;
48122;SDS011;33907;47.426;18.906;2023-08-21T03:52:16;17.52;;;15.18;;
48122;SDS011;33907;47.426;18.906;2023-08-21T03:54:43;18.33;;;15.43;;
48122;SDS011;33907;47.426;18.906;2023-08-21T03:57:11;17.80;;;15.00;;
48122;SDS011;33907;47.426;18.906;2023-08-21T03:59:38;16.60;;;14.93;;
48122;SDS011;33907;47.426;18.906;2023-08-21T04:02:06;17.20;;;14.73;;
48122;SDS011;33907;47.426;18.906;2023-08-21T04:04:35;16.80;;;15.00;;
48122;SDS011;33907;47.426;18.906;2023-08-21T04:07:02;16.15;;;14.07;;
48122;SDS011;33907;47.426;18.906;2023-08-21T04:09:30;17.12;;;14.25;;
48122;SDS011;33907;47.426;18.906;2023-08-21T04:11:58;15.38;;;13.07;;
48122;SDS011;33907;47.426;18.906;2023-08-21T04:14:25;16.00;;;14.35;;
48122;SDS011;33907;47.426;18.906;2023-08-21T04:16:53;15.73;;;14.02;;
48122;SDS011;33907;47.426;18.906;2023-08-21T04:19:20;16.77;;;14.52;;
48122;SDS011;33907;47.426;18.906;2023-08-21T04:21:48;18.87;;;14.43;;
48122;SDS011;33907;47.426;18.906;2023-08-21T04:24:15;16.62;;;14.77;;
48122;SDS011;33907;47.426;18.906;2023-08-21T04:26:43;16.77;;;14.23;;
48122;SDS011;33907;47.426;18.906;2023-08-21T04:29:11;15.82;;;14.20;;
48122;SDS011;33907;47.426;18.906;2023-08-21T04:31:38;29.15;;;14.98;;
48122;SDS011;33907;47.426;18.906;2023-08-21T04:34:06;18.77;;;14.40;;
48122;SDS011;33907;47.426;18.906;2023-08-21T04:36:34;17.00;;;13.25;;
48122;SDS011;33907;47.426;18.906;2023-08-21T04:39:01;16.33;;;12.52;;
48122;SDS011;33907;47.426;18.906;2023-08-21T04:41:29;14.23;;;12.80;;
48122;SDS011;33907;47.426;18.906;2023-08-21T04:43:57;15.07;;;13.38;;
48122;SDS011;33907;47.426;18.906;2023-08-21T04:46:25;17.17;;;13.30;;
48122;SDS011;33907;47.426;18.906;2023-08-21T04:48:54;16.25;;;13.70;;
48122;SDS011;33907;47.426;18.906;2023-08-21T04:51:21;15.20;;;13.07;;
48122;SDS011;33907;47.426;18.906;2023-08-21T04:53:49;15.35;;;12.37;;
48122;SDS011;33907;47.426;18.906;2023-08-21T04:56:17;16.35;;;12.48;;
48122;SDS011;33907;47.426;18.906;2023-08-21T04:58:45;14.63;;;12.37;;
48122;SDS011;33907;47.426;18.906;2023-08-21T05:01:12;14.07;;;12.15;;
48122;SDS011;33907;47.426;18.906;2023-08-21T05:03:43;13.75;;;11.50;;
48122;SDS011;33907;47.426;18.906;2023-08-21T05:06:11;14.18;;;12.23;;
48122;SDS011;33907;47.426;18.906;2023-08-21T05:08:39;13.07;;;10.70;;
48122;SDS011;33907;47.426;18.906;2023-08-21T05:11:07;12.25;;;10.98;;
48122;SDS011;33907;47.426;18.906;2023-08-21T05:13:36;12.00;;;10.68;;
48122;SDS011;33907;47.426;18.906;2023-08-21T05:16:03;15.75;;;10.63;;
48122;SDS011;33907;47.426;18.906;2023-08-21T05:18:32;12.02;;;10.32;;
48122;SDS011;33907;47.426;18.906;2023-08-21T05:21:00;11.98;;;10.77;;
48122;SDS011;33907;47.426;18.906;2023-08-21T05:23:28;13.57;;;10.50;;
48122;SDS011;33907;47.426;18.906;2023-08-21T05:25:56;13.18;;;10.32;;
48122;SDS011;33907;47.426;18.906;2023-08-21T05:28:23;16.75;;;10.63;;
48122;SDS011;33907;47.426;18.906;2023-08-21T05:30:51;14.65;;;11.12;;
48122;SDS011;33907;47.426;18.906;2023-08-21T05:33:19;11.40;;;10.25;;
48122;SDS011;33907;47.426;18.906;2023-08-21T05:35:47;11.75;;;10.55;;
48122;SDS011;33907;47.426;18.906;2023-08-21T05:38:15;12.35;;;11.00;;
48122;SDS011;33907;47.426;18.906;2023-08-21T05:40:42;12.27;;;10.95;;
48122;SDS011;33907;47.426;18.906;2023-08-21T05:43:10;13.10;;;10.90;;
48122;SDS011;33907;47.426;18.906;2023-08-21T05:45:37;11.32;;;10.13;;
48122;SDS011;33907;47.426;18.906;2023-08-21T05:48:05;13.38;;;11.55;;
48122;SDS011;33907;47.426;18.906;2023-08-21T05:50:33;11.88;;;10.45;;
48122;SDS011;33907;47.426;18.906;2023-08-21T05:53:03;11.80;;;10.50;;
48122;SDS011;33907;47.426;18.906;2023-08-21T05:55:32;12.00;;;10.70;;
48122;SDS011;33907;47.426;18.906;2023-08-21T05:58:00;13.35;;;10.13;;
48122;SDS011;33907;47.426;18.906;2023-08-21T06:00:27;12.55;;;10.68;;
48122;SDS011;33907;47.426;18.906;2023-08-21T06:02:55;13.38;;;11.35;;
48122;SDS011;33907;47.426;18.906;2023-08-21T06:05:24;12.63;;;11.27;;
48122;SDS011;33907;47.426;18.906;2023-08-21T06:07:52;14.55;;;11.60;;
48122;SDS011;33907;47.426;18.906;2023-08-21T06:10:20;12.73;;;11.20;;
48122;SDS011;33907;47.426;18.906;2023-08-21T06:12:48;12.07;;;10.88;;
48122;SDS011;33907;47.426;18.906;2023-08-21T06:15:15;13.00;;;11.43;;
48122;SDS011;33907;47.426;18.906;2023-08-21T06:17:43;12.00;;;10.80;;
48122;SDS011;33907;47.426;18.906;2023-08-21T06:20:10;13.27;;;11.23;;
48122;SDS011;33907;47.426;18.906;2023-08-21T06:22:38;15.32;;;11.63;;
48122;SDS011;33907;47.426;18.906;2023-08-21T06:25:07;16.20;;;12.15;;
48122;SDS011;33907;47.426;18.906;2023-08-21T06:27:36;15.60;;;12.18;;
48122;SDS011;33907;47.426;18.906;2023-08-21T06:30:22;12.48;;;11.18;;
48122;SDS011;33907;47.426;18.906;2023-08-21T06:32:50;14.40;;;11.12;;
48122;SDS011;33907;47.426;18.906;2023-08-21T06:35:17;15.65;;;12.30;;
48122;SDS011;33907;47.426;18.906;2023-08-21T06:37:45;13.48;;;11.52;;
48122;SDS011;33907;47.426;18.906;2023-08-21T06:40:13;13.20;;;11.68;;
48122;SDS011;33907;47.426;18.906;2023-08-21T06:42:40;13.82;;;12.37;;
48122;SDS011;33907;47.426;18.906;2023-08-21T06:45:08;12.52;;;11.23;;
48122;SDS011;33907;47.426;18.906;2023-08-21T06:47:37;13.27;;;11.98;;
48122;SDS011;33907;47.426;18.906;2023-08-21T06:50:05;13.73;;;11.70;;
48122;SDS011;33907;47.426;18.906;2023-08-21T06:52:32;17.80;;;12.52;;
48122;SDS011;33907;47.426;18.906;2023-08-21T06:55:00;16.35;;;12.37;;
48122;SDS011;33907;47.426;18.906;2023-08-21T06:57:28;13.70;;;12.30;;
48122;SDS011;33907;47.426;18.906;2023-08-21T06:59:55;12.80;;;11.35;;
48122;SDS011;33907;47.426;18.906;2023-08-21T07:02:23;13.52;;;11.80;;
48122;SDS011;33907;47.426;18.906;2023-08-21T07:04:50;13.30;;;12.00;;
48122;SDS011;33907;47.426;18.906;2023-08-21T07:07:18;13.07;;;11.65;;
48122;SDS011;33907;47.426;18.906;2023-08-21T07:09:46;14.35;;;11.98;;
48122;SDS011;33907;47.426;18.906;2023-08-21T07:12:13;16.92;;;11.50;;
48122;SDS011;33907;47.426;18.906;2023-08-21T07:14:41;13.40;;;11.55;;
48122;SDS011;33907;47.426;18.906;2023-08-21T07:17:08;15.25;;;11.20;;
48122;SDS011;33907;47.426;18.906;2023-08-21T07:19:36;14.27;;;11.30;;
48122;SDS011;33907;47.426;18.906;2023-08-21T07:22:03;15.45;;;11.60;;
48122;SDS011;33907;47.426;18.906;2023-08-21T07:24:31;18.52;;;10.63;;
48122;SDS011;33907;47.426;18.906;2023-08-21T07:26:58;14.15;;;10.10;;
48122;SDS011;33907;47.426;18.906;2023-08-21T07:29:26;11.43;;;10.00;;
48122;SDS011;33907;47.426;18.906;2023-08-21T07:31:54;12.80;;;9.90;;
48122;SDS011;33907;47.426;18.906;2023-08-21T07:34:21;11.38;;;9.43;;
48122;SDS011;33907;47.426;18.906;2023-08-21T07:36:49;12.65;;;10.02;;
48122;SDS011;33907;47.426;18.906;2023-08-21T07:39:16;15.13;;;10.63;;
48122;SDS011;33907;47.426;18.906;2023-08-21T07:41:44;13.18;;;10.38;;
48122;SDS011;33907;47.426;18.906;2023-08-21T07:44:11;12.30;;;10.18;;
48122;SDS011;33907;47.426;18.906;2023-08-21T07:46:39;12.30;;;9.95;;
48122;SDS011;33907;47.426;18.906;2023-08-21T07:49:07;15.65;;;10.50;;
48122;SDS011;33907;47.426;18.906;2023-08-21T07:51:34;12.15;;;10.07;;
48122;SDS011;33907;47.426;18.906;2023-08-21T07:54:03;12.55;;;11.00;;
48122;SDS011;33907;47.426;18.906;2023-08-21T07:56:30;13.62;;;10.35;;
48122;SDS011;33907;47.426;18.906;2023-08-21T07:58:58;12.80;;;10.88;;
48122;SDS011;33907;47.426;18.906;2023-08-21T08:01:26;13.18;;;10.13;;
48122;SDS011;33907;47.426;18.906;2023-08-21T08:03:54;12.27;;;10.10;;
48122;SDS011;33907;47.426;18.906;2023-08-21T08:06:21;11.38;;;10.15;;
48122;SDS011;33907;47.426;18.906;2023-08-21T08:08:50;11.20;;;10.00;;
48122;SDS011;33907;47.426;18.906;2023-08-21T08:11:18;12.10;;;10.10;;
48122;SDS011;33907;47.426;18.906;2023-08-21T08:13:45;12.48;;;9.95;;
48122;SDS011;33907;47.426;18.906;2023-08-21T08:16:13;12.20;;;10.13;;
48122;SDS011;33907;47.426;18.906;2023-08-21T08:18:40;12.27;;;9.32;;
48122;SDS011;33907;47.426;18.906;2023-08-21T08:21:08;11.52;;;10.20;;
48122;SDS011;33907;47.426;18.906;2023-08-21T08:23:36;12.25;;;10.00;;
48122;SDS011;33907;47.426;18.906;2023-08-21T08:26:04;11.75;;;9.75;;
48122;SDS011;33907;47.426;18.906;2023-08-21T08:28:31;11.63;;;9.25;;
48122;SDS011;33907;47.426;18.906;2023-08-21T08:30:59;14.27;;;11.20;;
48122;SDS011;33907;47.426;18.906;2023-08-21T08:33:27;12.23;;;9.07;;
48122;SDS011;33907;47.426;18.906;2023-08-21T08:35:55;11.93;;;9.55;;
48122;SDS011;33907;47.426;18.906;2023-08-21T08:38:23;21.52;;;10.43;;
48122;SDS011;33907;47.426;18.906;2023-08-21T08:40:51;11.60;;;9.07;;
48122;SDS011;33907;47.426;18.906;2023-08-21T08:43:20;12.82;;;9.45;;
48122;SDS011;33907;47.426;18.906;2023-08-21T08:45:48;12.93;;;9.85;;
48122;SDS011;33907;47.426;18.906;2023-08-21T08:48:16;10.80;;;8.70;;
48122;SDS011;33907;47.426;18.906;2023-08-21T08:50:45;10.68;;;9.07;;
48122;SDS011;33907;47.426;18.906;2023-08-21T08:53:13;12.60;;;9.40;;
48122;SDS011;33907;47.426;18.906;2023-08-21T08:55:44;11.70;;;10.00;;
48122;SDS011;33907;47.426;18.906;2023-08-21T08:58:12;12.00;;;9.77;;
48122;SDS011;33907;47.426;18.906;2023-08-21T09:00:39;12.18;;;9.65;;
48122;SDS011;33907;47.426;18.906;2023-08-21T09:03:07;12.40;;;10.07;;
48122;SDS011;33907;47.426;18.906;2023-08-21T09:05:38;12.45;;;9.60;;
48122;SDS011;33907;47.426;18.906;2023-08-21T09:10:36;10.57;;;9.48;;
48122;SDS011;33907;47.426;18.906;2023-08-21T09:13:14;13.73;;;10.25;;
48122;SDS011;33907;47.426;18.906;2023-08-21T09:15:48;11.65;;;9.45;;
48122;SDS011;33907;47.426;18.906;2023-08-21T09:18:16;12.90;;;10.10;;
48122;SDS011;33907;47.426;18.906;2023-08-21T09:20:44;11.45;;;9.70;;
48122;SDS011;33907;47.426;18.906;2023-08-21T09:23:15;12.68;;;9.85;;
48122;SDS011;33907;47.426;18.906;2023-08-21T09:25:44;11.05;;;9.52;;
48122;SDS011;33907;47.426;18.906;2023-08-21T09:28:18;12.07;;;10.07;;
48122;SDS011;33907;47.426;18.906;2023-08-21T09:30:52;12.00;;;9.45;;
48122;SDS011;33907;47.426;18.906;2023-08-21T09:33:22;11.95;;;10.43;;
48122;SDS011;33907;47.426;18.906;2023-08-21T09:35:51;12.68;;;9.98;;
48122;SDS011;33907;47.426;18.906;2023-08-21T09:38:19;11.12;;;9.82;;
48122;SDS011;33907;47.426;18.906;2023-08-21T09:40:51;11.63;;;9.68;;
48122;SDS011;33907;47.426;18.906;2023-08-21T09:43:23;11.52;;;10.20;;
48122;SDS011;33907;47.426;18.906;2023-08-21T09:45:53;13.07;;;9.80;;
48122;SDS011;33907;47.426;18.906;2023-08-21T09:48:24;12.52;;;9.95;;
48122;SDS011;33907;47.426;18.906;2023-08-21T09:50:54;12.23;;;9.60;;
48122;SDS011;33907;47.426;18.906;2023-08-21T09:53:23;11.02;;;8.32;;
48122;SDS011;33907;47.426;18.906;2023-08-21T09:56:02;11.20;;;8.05;;
48122;SDS011;33907;47.426;18.906;2023-08-21T09:58:30;14.27;;;9.68;;
48122;SDS011;33907;47.426;18.906;2023-08-21T10:00:59;11.32;;;8.82;;
48122;SDS011;33907;47.426;18.906;2023-08-21T10:03:28;9.82;;;8.25;;
48122;SDS011;33907;47.426;18.906;2023-08-21T10:05:57;12.18;;;9.20;;
48122;SDS011;33907;47.426;18.906;2023-08-21T10:08:25;10.30;;;8.55;;
48122;SDS011;33907;47.426;18.906;2023-08-21T10:10:54;12.43;;;8.88;;
48122;SDS011;33907;47.426;18.906;2023-08-21T10:13:22;10.48;;;9.25;;
48122;SDS011;33907;47.426;18.906;2023-08-21T10:15:49;11.90;;;9.30;;
48122;SDS011;33907;47.426;18.906;2023-08-21T10:18:22;10.65;;;9.55;;
48122;SDS011;33907;47.426;18.906;2023-08-21T10:20:51;11.38;;;9.52;;
48122;SDS011;33907;47.426;18.906;2023-08-21T10:23:27;12.18;;;9.90;;
48122;SDS011;33907;47.426;18.906;2023-08-21T10:25:59;12.95;;;9.10;;
48122;SDS011;33907;47.426;18.906;2023-08-21T10:34:03;13.50;;;9.77;;
48122;SDS011;33907;47.426;18.906;2023-08-21T10:39:13;10.25;;;8.93;;
48122;SDS011;33907;47.426;18.906;2023-08-21T10:41:53;12.75;;;9.50;;
48122;SDS011;33907;47.426;18.906;2023-08-21T10:44:36;12.18;;;9.20;;
48122;SDS011;33907;47.426;18.906;2023-08-21T10:47:17;12.82;;;9.02;;
48122;SDS011;33907;47.426;18.906;2023-08-21T10:52:26;10.40;;;9.30;;
48122;SDS011;33907;47.426;18.906;2023-08-21T10:55:05;12.25;;;9.70;;
48122;SDS011;33907;47.426;18.906;2023-08-21T10:57:33;11.80;;;10.60;;
48122;SDS011;33907;47.426;18.906;2023-08-21T11:00:05;13.23;;;10.55;;
48122;SDS011;33907;47.426;18.906;2023-08-21T11:02:37;13.15;;;10.02;;
48122;SDS011;33907;47.426;18.906;2023-08-21T11:05:07;15.00;;;9.52;;
48122;SDS011;33907;47.426;18.906;2023-08-21T11:07:37;12.45;;;9.25;;
48122;SDS011;33907;47.426;18.906;2023-08-21T11:10:07;11.27;;;9.13;;
48122;SDS011;33907;47.426;18.906;2023-08-21T11:12:54;10.40;;;9.30;;
48122;SDS011;33907;47.426;18.906;2023-08-21T11:15:27;11.27;;;9.75;;
48122;SDS011;33907;47.426;18.906;2023-08-21T11:17:56;11.30;;;9.50;;
48122;SDS011;33907;47.426;18.906;2023-08-21T11:23:05;12.20;;;9.95;;
48122;SDS011;33907;47.426;18.906;2023-08-21T11:25:39;11.27;;;9.73;;
48122;SDS011;33907;47.426;18.906;2023-08-21T11:28:07;13.02;;;8.90;;
48122;SDS011;33907;47.426;18.906;2023-08-21T11:30:35;11.02;;;9.93;;
48122;SDS011;33907;47.426;18.906;2023-08-21T11:35:37;10.82;;;9.00;;
48122;SDS011;33907;47.426;18.906;2023-08-21T11:38:05;10.90;;;9.02;;
48122;SDS011;33907;47.426;18.906;2023-08-21T11:40:36;12.02;;;8.75;;
48122;SDS011;33907;47.426;18.906;2023-08-21T11:43:04;12.88;;;9.75;;
48122;SDS011;33907;47.426;18.906;2023-08-21T11:45:36;13.57;;;9.02;;
48122;SDS011;33907;47.426;18.906;2023-08-21T11:48:23;9.68;;;8.10;;
48122;SDS011;33907;47.426;18.906;2023-08-21T11:50:50;10.00;;;8.48;;
48122;SDS011;33907;47.426;18.906;2023-08-21T11:53:33;9.68;;;8.02;;
48122;SDS011;33907;47.426;18.906;2023-08-21T11:56:03;11.15;;;8.25;;
48122;SDS011;33907;47.426;18.906;2023-08-21T11:58:43;9.30;;;7.72;;
48122;SDS011;33907;47.426;18.906;2023-08-21T12:01:16;11.07;;;8.15;;
48122;SDS011;33907;47.426;18.906;2023-08-21T12:03:44;14.40;;;7.62;;
48122;SDS011;33907;47.426;18.906;2023-08-21T12:06:12;9.77;;;7.57;;
48122;SDS011;33907;47.426;18.906;2023-08-21T12:08:40;9.60;;;7.80;;
48122;SDS011;33907;47.426;18.906;2023-08-21T12:11:08;9.32;;;8.10;;
48122;SDS011;33907;47.426;18.906;2023-08-21T12:13:36;10.52;;;7.90;;
48122;SDS011;33907;47.426;18.906;2023-08-21T12:16:04;9.75;;;8.32;;
48122;SDS011;33907;47.426;18.906;2023-08-21T12:18:34;13.10;;;8.73;;
48122;SDS011;33907;47.426;18.906;2023-08-21T12:21:01;10.73;;;8.60;;
48122;SDS011;33907;47.426;18.906;2023-08-21T12:23:29;10.18;;;8.77;;
48122;SDS011;33907;47.426;18.906;2023-08-21T12:25:57;9.50;;;8.50;;
48122;SDS011;33907;47.426;18.906;2023-08-21T12:28:24;12.55;;;9.00;;
48122;SDS011;33907;47.426;18.906;2023-08-21T12:30:52;10.18;;;9.10;;
48122;SDS011;33907;47.426;18.906;2023-08-21T12:33:19;10.60;;;7.78;;
48122;SDS011;33907;47.426;18.906;2023-08-21T12:35:50;10.10;;;8.65;;
48122;SDS011;33907;47.426;18.906;2023-08-21T12:38:18;8.35;;;7.50;;
48122;SDS011;33907;47.426;18.906;2023-08-21T12:40:48;10.93;;;8.65;;
48122;SDS011;33907;47.426;18.906;2023-08-21T12:43:15;10.23;;;8.75;;
48122;SDS011;33907;47.426;18.906;2023-08-21T12:45:43;11.27;;;8.80;;
48122;SDS011;33907;47.426;18.906;2023-08-21T12:48:11;10.90;;;8.38;;
48122;SDS011;33907;47.426;18.906;2023-08-21T12:50:38;10.20;;;8.75;;
48122;SDS011;33907;47.426;18.906;2023-08-21T12:53:06;10.65;;;8.45;;
48122;SDS011;33907;47.426;18.906;2023-08-21T12:55:34;10.70;;;8.98;;
48122;SDS011;33907;47.426;18.906;2023-08-21T12:58:03;9.73;;;8.73;;
48122;SDS011;33907;47.426;18.906;2023-08-21T13:00:31;11.32;;;8.38;;
48122;SDS011;33907;47.426;18.906;2023-08-21T13:02:59;12.02;;;8.82;;
48122;SDS011;33907;47.426;18.906;2023-08-21T13:05:27;9.77;;;8.27;;
48122;SDS011;33907;47.426;18.906;2023-08-21T13:07:55;10.50;;;8.63;;
48122;SDS011;33907;47.426;18.906;2023-08-21T13:10:22;13.57;;;8.60;;
48122;SDS011;33907;47.426;18.906;2023-08-21T13:12:50;8.95;;;7.78;;
48122;SDS011;33907;47.426;18.906;2023-08-21T13:15:19;10.65;;;8.43;;
48122;SDS011;33907;47.426;18.906;2023-08-21T13:17:46;12.02;;;8.55;;
48122;SDS011;33907;47.426;18.906;2023-08-21T13:20:15;12.20;;;8.38;;
48122;SDS011;33907;47.426;18.906;2023-08-21T13:22:46;11.20;;;7.65;;
48122;SDS011;33907;47.426;18.906;2023-08-21T13:25:22;9.45;;;8.15;;
48122;SDS011;33907;47.426;18.906;2023-08-21T13:27:51;10.57;;;8.20;;
48122;SDS011;33907;47.426;18.906;2023-08-21T13:30:20;11.43;;;7.80;;
48122;SDS011;33907;47.426;18.906;2023-08-21T13:32:47;12.10;;;8.50;;
48122;SDS011;33907;47.426;18.906;2023-08-21T13:35:15;14.30;;;8.85;;
48122;SDS011;33907;47.426;18.906;2023-08-21T13:37:44;14.15;;;8.35;;
48122;SDS011;33907;47.426;18.906;2023-08-21T13:40:11;10.07;;;8.40;;
48122;SDS011;33907;47.426;18.906;2023-08-21T13:42:41;14.13;;;8.77;;
48122;SDS011;33907;47.426;18.906;2023-08-21T13:45:12;13.62;;;9.18;;
48122;SDS011;33907;47.426;18.906;2023-08-21T13:47:41;11.25;;;9.02;;
48122;SDS011;33907;47.426;18.906;2023-08-21T13:50:10;10.45;;;9.35;;
48122;SDS011;33907;47.426;18.906;2023-08-21T13:52:38;11.73;;;9.43;;
48122;SDS011;33907;47.426;18.906;2023-08-21T13:55:08;11.50;;;9.98;;
48122;SDS011;33907;47.426;18.906;2023-08-21T13:57:36;14.18;;;9.85;;
48122;SDS011;33907;47.426;18.906;2023-08-21T14:00:05;10.90;;;8.70;;
48122;SDS011;33907;47.426;18.906;2023-08-21T14:02:35;10.80;;;9.20;;
48122;SDS011;33907;47.426;18.906;2023-08-21T14:05:02;10.18;;;9.10;;
48122;SDS011;33907;47.426;18.906;2023-08-21T14:07:32;11.25;;;9.15;;
48122;SDS011;33907;47.426;18.906;2023-08-21T14:10:00;12.05;;;9.23;;
48122;SDS011;33907;47.426;18.906;2023-08-21T14:12:29;11.12;;;9.25;;
48122;SDS011;33907;47.426;18.906;2023-08-21T14:15:00;13.82;;;9.00;;
48122;SDS011;33907;47.426;18.906;2023-08-21T14:17:29;12.40;;;9.13;;
48122;SDS011;33907;47.426;18.906;2023-08-21T14:19:57;11.90;;;9.98;;
48122;SDS011;33907;47.426;18.906;2023-08-21T14:22:24;12.77;;;8.95;;
48122;SDS011;33907;47.426;18.906;2023-08-21T14:24:52;12.35;;;10.20;;
48122;SDS011;33907;47.426;18.906;2023-08-21T14:27:20;12.32;;;9.65;;
48122;SDS011;33907;47.426;18.906;2023-08-21T14:29:47;10.88;;;8.82;;
48122;SDS011;33907;47.426;18.906;2023-08-21T14:32:15;13.05;;;9.30;;
48122;SDS011;33907;47.426;18.906;2023-08-21T14:34:43;12.90;;;8.90;;
48122;SDS011;33907;47.426;18.906;2023-08-21T14:37:10;15.27;;;9.50;;
48122;SDS011;33907;47.426;18.906;2023-08-21T14:39:42;12.27;;;9.90;;
48122;SDS011;33907;47.426;18.906;2023-08-21T14:42:10;12.65;;;9.82;;
48122;SDS011;33907;47.426;18.906;2023-08-21T14:44:38;12.37;;;10.27;;
48122;SDS011;33907;47.426;18.906;2023-08-21T14:47:06;13.70;;;9.27;;